Time;durP1;ratioP1;P1;durP2;ratioP2;P2;SDS_P1;SDS_P2;PMS_P1;PMS_P2;Temp;Humidity;BMP_temperature;BMP_pressure;BME280_temperature;BME280_humidity;BME280_pressure;Samples;Min_cycle;Max_cycle;Signal;HPM_P1;HPM_P2
2024/04/09 00:00:51;;;;;;;2.63;1.90;;;18.40;97.00;;;;;;5413597;26;20518;-47
2024/04/09 00:03:18;;;;;;;2.40;1.70;;;18.40;97.00;;;;;;5413124;26;20457;-47
2024/04/09 00:05:49;;;;;;;3.30;1.50;;;18.30;96.90;;;;;;5411376;26;20519;-50
2024/04/09 00:08:16;;;;;;;3.03;1.60;;;18.40;97.30;;;;;;5409826;26;20456;-48
2024/04/09 00:10:49;;;;;;;6.97;2.30;;;18.30;97.20;;;;;;5413605;26;20531;-48
2024/04/09 00:13:16;;;;;;;4.90;1.40;;;18.30;97.30;;;;;;5406198;26;20460;-49
2024/04/09 00:15:46;;;;;;;2.90;1.63;;;18.40;97.60;;;;;;5413586;26;20875;-48
2024/04/09 00:18:14;;;;;;;2.50;1.60;;;18.30;97.50;;;;;;5397091;26;20573;-48
2024/04/09 00:20:48;;;;;;;2.90;1.63;;;18.30;97.50;;;;;;5397923;26;20516;-48
2024/04/09 00:23:16;;;;;;;2.73;1.70;;;18.30;97.70;;;;;;5394380;26;21017;-48
2024/04/09 00:25:49;;;;;;;3.40;1.63;;;18.30;98.00;;;;;;5414334;26;21052;-47
2024/04/09 00:28:16;;;;;;;4.23;1.70;;;18.30;98.00;;;;;;5405330;26;20571;-48
2024/04/09 00:30:47;;;;;;;4.10;1.60;;;18.30;97.80;;;;;;5412216;26;20453;-48
2024/04/09 00:33:17;;;;;;;5.70;1.83;;;18.30;98.00;;;;;;5393625;26;20461;-50
2024/04/09 00:35:49;;;;;;;4.83;2.07;;;18.30;97.90;;;;;;5404486;26;20457;-48
2024/04/09 00:38:19;;;;;;;3.23;1.70;;;18.30;97.90;;;;;;5409550;26;20456;-49
2024/04/09 00:40:52;;;;;;;2.67;2.10;;;18.30;98.10;;;;;;5413235;26;20742;-49
2024/04/09 00:43:20;;;;;;;4.80;1.90;;;18.40;97.70;;;;;;5410438;26;20562;-48
2024/04/09 00:45:50;;;;;;;4.33;1.93;;;18.30;97.90;;;;;;5413712;26;20504;-48
2024/04/09 00:48:18;;;;;;;5.17;1.80;;;18.30;97.80;;;;;;5410425;26;20445;-48
2024/04/09 00:50:48;;;;;;;4.60;2.23;;;18.30;97.80;;;;;;5411700;26;20460;-49
2024/04/09 00:53:16;;;;;;;2.20;1.47;;;18.30;97.80;;;;;;5407908;26;20567;-48
2024/04/09 00:55:49;;;;;;;3.07;1.90;;;18.30;98.10;;;;;;5413427;26;20524;-49
2024/04/09 00:58:20;;;;;;;3.77;1.93;;;18.30;98.00;;;;;;5406197;26;20467;-47
2024/04/09 01:00:50;;;;;;;3.13;1.80;;;18.30;98.00;;;;;;5412519;26;20579;-48
2024/04/09 01:03:18;;;;;;;4.90;1.90;;;18.30;97.90;;;;;;5412603;26;20568;-47
2024/04/09 01:05:49;;;;;;;4.13;1.43;;;18.30;97.90;;;;;;5408202;26;20833;-49
2024/04/09 01:08:16;;;;;;;5.83;1.90;;;18.30;97.90;;;;;;5397882;26;20844;-48
2024/04/09 01:10:46;;;;;;;3.17;1.80;;;18.30;97.80;;;;;;5397895;26;20457;-47
2024/04/09 01:13:13;;;;;;;2.17;1.90;;;18.30;97.90;;;;;;5396309;26;20467;-48
2024/04/09 01:15:45;;;;;;;2.47;1.60;;;18.30;98.00;;;;;;5406595;26;20578;-48
2024/04/09 01:18:13;;;;;;;3.00;1.57;;;18.30;98.10;;;;;;5408785;26;21140;-48
2024/04/09 01:20:43;;;;;;;2.20;1.30;;;18.30;98.10;;;;;;5405386;26;20584;-49
2024/04/09 01:23:13;;;;;;;2.63;1.67;;;18.30;98.20;;;;;;5396715;26;20582;-50
2024/04/09 01:25:43;;;;;;;6.03;1.70;;;18.30;98.00;;;;;;5398076;26;20460;-48
2024/04/09 01:28:10;;;;;;;2.47;1.50;;;18.30;97.90;;;;;;5397546;26;20476;-48
2024/04/09 01:30:40;;;;;;;3.00;1.93;;;18.30;98.00;;;;;;5402090;26;20479;-48
2024/04/09 01:33:08;;;;;;;4.40;1.60;;;18.30;97.80;;;;;;5409564;26;20869;-49
2024/04/09 01:35:39;;;;;;;3.13;1.83;;;18.30;97.80;;;;;;5413788;26;20452;-50
2024/04/09 01:38:09;;;;;;;1.90;1.60;;;18.30;97.90;;;;;;5406280;26;20508;-47
2024/04/09 01:40:41;;;;;;;3.13;1.40;;;18.30;98.00;;;;;;5413729;26;20519;-47
2024/04/09 01:43:09;;;;;;;2.60;1.57;;;18.30;98.10;;;;;;5405690;26;20563;-47
2024/04/09 01:45:39;;;;;;;2.23;1.27;;;18.20;97.90;;;;;;5416992;26;20929;-48
2024/04/09 01:48:09;;;;;;;3.43;1.53;;;18.20;98.00;;;;;;5408586;26;20456;-47
2024/04/09 01:50:39;;;;;;;3.60;2.23;;;18.20;98.10;;;;;;5398950;26;20579;-48
2024/04/09 01:53:06;;;;;;;3.73;2.03;;;18.20;98.20;;;;;;5409521;26;21000;-48
2024/04/09 01:55:36;;;;;;;3.47;1.77;;;18.20;98.00;;;;;;5412685;26;20792;-48
2024/04/09 01:58:08;;;;;;;4.83;1.73;;;18.30;97.90;;;;;;5403374;26;21123;-47
2024/04/09 02:00:38;;;;;;;3.60;1.63;;;18.20;97.70;;;;;;5415131;26;20582;-47
2024/04/09 02:03:07;;;;;;;2.93;1.60;;;18.20;97.90;;;;;;5415549;26;20530;-47
2024/04/09 02:05:38;;;;;;;3.00;1.67;;;18.20;97.90;;;;;;5413107;26;20452;-47
2024/04/09 02:08:06;;;;;;;2.83;1.43;;;18.20;98.20;;;;;;5408421;26;20456;-47
2024/04/09 02:10:36;;;;;;;3.53;1.40;;;18.30;98.20;;;;;;5414392;26;20472;-49
2024/04/09 02:13:03;;;;;;;3.50;1.50;;;18.20;97.80;;;;;;5407126;26;20468;-49
2024/04/09 02:15:36;;;;;;;3.17;1.73;;;18.20;97.90;;;;;;5415326;26;20472;-47
2024/04/09 02:18:04;;;;;;;3.30;1.90;;;18.20;98.10;;;;;;5410182;26;20505;-46
2024/04/09 02:20:33;;;;;;;2.73;1.63;;;18.20;98.10;;;;;;5399526;26;20472;-47
2024/04/09 02:23:01;;;;;;;2.67;1.63;;;18.20;97.90;;;;;;5394315;26;20473;-47
2024/04/09 02:25:30;;;;;;;4.00;1.90;;;18.20;97.80;;;;;;5411121;26;20582;-48
2024/04/09 02:27:58;;;;;;;2.40;1.50;;;18.20;97.90;;;;;;5409198;26;21045;-49
2024/04/09 02:30:28;;;;;;;4.40;1.47;;;18.20;97.50;;;;;;5414876;26;20803;-49
2024/04/09 02:32:58;;;;;;;2.47;1.60;;;18.20;97.50;;;;;;5396528;26;20456;-48
2024/04/09 02:35:28;;;;;;;3.13;1.40;;;18.20;97.90;;;;;;5398029;26;21034;-48
2024/04/09 02:37:57;;;;;;;2.00;1.10;;;18.20;97.80;;;;;;5410158;26;20508;-47
2024/04/09 02:40:27;;;;;;;2.13;1.53;;;18.20;98.10;;;;;;5400768;26;20515;-49
2024/04/09 02:42:56;;;;;;;2.20;1.73;;;18.20;97.80;;;;;;5411129;26;20505;-48
2024/04/09 02:45:26;;;;;;;2.20;1.60;;;18.20;97.90;;;;;;5415483;26;20456;-49
2024/04/09 02:47:53;;;;;;;2.87;1.80;;;18.20;98.00;;;;;;5406694;26;20456;-48
2024/04/09 02:50:26;;;;;;;2.83;1.30;;;18.20;97.50;;;;;;5395565;26;20551;-48
2024/04/09 02:52:54;;;;;;;2.57;1.30;;;18.20;97.90;;;;;;5394935;26;20464;-50
2024/04/09 02:55:24;;;;;;;5.17;1.90;;;18.20;97.30;;;;;;5415380;26;20571;-48
2024/04/09 02:57:51;;;;;;;4.70;1.53;;;18.20;97.80;;;;;;5403516;26;20560;-49
2024/04/09 03:00:22;;;;;;;4.00;1.53;;;18.20;97.60;;;;;;5406046;26;20472;-48
2024/04/09 03:02:51;;;;;;;2.70;1.97;;;18.20;97.30;;;;;;5413223;26;20460;-48
2024/04/09 03:05:22;;;;;;;3.17;1.73;;;18.20;97.10;;;;;;5414158;26;20452;-49
2024/04/09 03:07:52;;;;;;;2.00;1.10;;;18.20;97.00;;;;;;5399652;26;20562;-48
2024/04/09 03:10:22;;;;;;;2.70;1.50;;;18.20;97.10;;;;;;5411983;26;20571;-49
2024/04/09 03:12:49;;;;;;;1.60;1.13;;;18.20;97.00;;;;;;5408467;26;20466;-49
2024/04/09 03:15:19;;;;;;;2.60;1.70;;;18.20;96.90;;;;;;5413828;26;20460;-48
2024/04/09 03:17:46;;;;;;;1.90;1.17;;;18.20;96.90;;;;;;5404748;26;20582;-48
2024/04/09 03:20:17;;;;;;;2.80;1.37;;;18.20;97.00;;;;;;5414106;26;20452;-48
2024/04/09 03:22:44;;;;;;;5.00;2.40;;;18.20;96.90;;;;;;5410478;26;20456;-49
2024/04/09 03:25:17;;;;;;;2.03;1.23;;;18.20;97.20;;;;;;5413372;26;20486;-49
2024/04/09 03:27:44;;;;;;;2.47;1.50;;;18.20;97.10;;;;;;5403371;26;20902;-49
2024/04/09 03:30:14;;;;;;;4.83;2.00;;;18.10;97.30;;;;;;5412166;26;20471;-48
2024/04/09 03:32:41;;;;;;;2.60;1.50;;;18.10;97.70;;;;;;5414358;26;20960;-48
2024/04/09 03:35:12;;;;;;;2.77;1.40;;;18.10;97.50;;;;;;5414759;26;20452;-48
2024/04/09 03:37:41;;;;;;;3.50;1.27;;;18.10;97.70;;;;;;5408527;26;20464;-48
2024/04/09 03:40:12;;;;;;;2.23;1.10;;;18.10;97.80;;;;;;5401403;26;20460;-49
2024/04/09 03:42:48;;;;;;;1.87;1.50;;;18.10;97.80;;;;;;5402175;26;20465;-49
2024/04/09 03:45:16;;;;;;;1.70;1.47;;;18.10;98.00;;;;;;5407339;26;20519;-49
2024/04/09 03:47:46;;;;;;;2.43;1.40;;;18.10;98.00;;;;;;5408946;26;21020;-48
2024/04/09 03:50:13;;;;;;;1.77;1.50;;;18.10;98.00;;;;;;5397722;26;20458;-49
2024/04/09 03:52:43;;;;;;;2.33;1.33;;;18.10;98.00;;;;;;5398454;26;20504;-49
2024/04/09 03:55:10;;;;;;;3.53;1.37;;;18.10;97.90;;;;;;5404066;26;20472;-49
2024/04/09 03:57:41;;;;;;;3.63;1.57;;;18.10;98.00;;;;;;5405621;26;20553;-51
2024/04/09 04:00:12;;;;;;;1.40;1.30;;;18.10;98.00;;;;;;5400387;26;20572;-49
2024/04/09 04:02:42;;;;;;;1.73;1.07;;;18.10;98.10;;;;;;5413602;26;20456;-48
2024/04/09 04:05:10;;;;;;;1.47;1.20;;;18.10;98.00;;;;;;5406753;26;20938;-47
2024/04/09 04:07:40;;;;;;;2.73;1.60;;;18.10;98.00;;;;;;5402860;26;20508;-49
2024/04/09 04:10:07;;;;;;;2.10;1.27;;;18.10;98.00;;;;;;5406665;26;20453;-48
2024/04/09 04:12:41;;;;;;;1.80;1.40;;;18.10;97.90;;;;;;5410661;26;20444;-48
2024/04/09 04:15:11;;;;;;;4.80;1.03;;;18.10;98.10;;;;;;5407732;26;20468;-49
2024/04/09 04:17:41;;;;;;;2.63;1.30;;;18.10;98.00;;;;;;5402590;26;20460;-50
2024/04/09 04:20:09;;;;;;;1.93;1.40;;;18.10;98.20;;;;;;5406536;26;20579;-50
2024/04/09 04:22:39;;;;;;;3.07;1.10;;;18.10;98.10;;;;;;5414489;26;20506;-49
2024/04/09 04:25:06;;;;;;;2.60;1.60;;;18.10;98.30;;;;;;5407269;26;20468;-48
2024/04/09 04:27:36;;;;;;;2.40;1.30;;;18.10;98.10;;;;;;5394879;26;20476;-49
2024/04/09 04:30:05;;;;;;;2.20;1.13;;;18.00;98.00;;;;;;5407944;26;20450;-47
2024/04/09 04:32:37;;;;;;;1.77;1.10;;;18.00;98.00;;;;;;5408055;26;20460;-49
2024/04/09 04:35:05;;;;;;;2.87;0.80;;;18.00;97.90;;;;;;5414675;26;20448;-48
2024/04/09 04:37:35;;;;;;;3.70;1.73;;;18.00;98.20;;;;;;5408986;26;20580;-49
2024/04/09 04:40:03;;;;;;;1.77;1.33;;;18.00;98.10;;;;;;5413969;26;20545;-48
2024/04/09 04:42:33;;;;;;;2.63;1.10;;;18.00;98.10;;;;;;5408062;26;20460;-50
2024/04/09 04:45:01;;;;;;;1.50;1.03;;;18.00;98.00;;;;;;5413179;26;20582;-51
2024/04/09 04:47:31;;;;;;;1.50;1.10;;;18.10;98.20;;;;;;5404333;26;21014;-49
2024/04/09 04:50:02;;;;;;;2.63;1.00;;;18.00;98.10;;;;;;5413822;26;20520;-48
2024/04/09 04:52:31;;;;;;;1.40;0.90;;;18.00;98.00;;;;;;5412512;26;20452;-48
2024/04/09 04:54:59;;;;;;;1.83;1.10;;;18.00;98.00;;;;;;5413816;26;20828;-47
2024/04/09 04:57:28;;;;;;;2.40;0.93;;;18.00;98.10;;;;;;5402581;26;20549;-49
2024/04/09 04:59:56;;;;;;;2.40;1.50;;;18.00;98.20;;;;;;5396089;26;21122;-48
2024/04/09 05:02:27;;;;;;;2.40;1.27;;;18.00;98.10;;;;;;5393301;26;20576;-49
2024/04/09 05:04:55;;;;;;;4.40;1.30;;;18.00;98.00;;;;;;5400780;26;20472;-47
2024/04/09 05:07:29;;;;;;;3.03;1.40;;;18.00;98.10;;;;;;5413311;26;21076;-47
2024/04/09 05:09:57;;;;;;;1.30;0.80;;;18.00;98.20;;;;;;5417312;26;20471;-48
2024/04/09 05:12:27;;;;;;;2.00;1.27;;;18.00;98.10;;;;;;5415713;26;20835;-47
2024/04/09 05:14:54;;;;;;;2.47;1.40;;;18.00;98.10;;;;;;5414610;26;20456;-47
2024/04/09 05:17:24;;;;;;;2.00;1.27;;;18.00;98.10;;;;;;5414458;26;21128;-47
2024/04/09 05:19:51;;;;;;;1.40;1.10;;;18.00;98.10;;;;;;5416968;26;21175;-48
2024/04/09 05:22:24;;;;;;;2.80;1.40;;;18.00;98.10;;;;;;5411954;26;20528;-48
2024/04/09 05:24:55;;;;;;;3.33;1.23;;;18.00;98.00;;;;;;5416410;26;20494;-47
2024/04/09 05:27:25;;;;;;;1.63;0.90;;;18.00;98.00;;;;;;5410370;26;20818;-47
2024/04/09 05:29:52;;;;;;;1.40;0.70;;;18.00;98.00;;;;;;5413316;26;20517;-47
2024/04/09 05:32:23;;;;;;;2.53;1.30;;;18.00;98.00;;;;;;5416055;26;20452;-47
2024/04/09 05:34:50;;;;;;;2.40;1.00;;;18.00;97.80;;;;;;5414143;26;21129;-47
2024/04/09 05:37:20;;;;;;;2.57;1.47;;;18.00;97.90;;;;;;5413670;26;20533;-48
2024/04/09 05:39:48;;;;;;;1.73;1.10;;;18.00;98.00;;;;;;5416757;26;21096;-47
2024/04/09 05:42:23;;;;;;;1.40;0.70;;;18.00;97.90;;;;;;5409278;26;20512;-48
2024/04/09 05:44:52;;;;;;;1.60;1.17;;;17.90;98.00;;;;;;5402416;26;20523;-48
2024/04/09 05:47:25;;;;;;;2.23;1.03;;;18.00;98.00;;;;;;5405396;26;20595;-48
2024/04/09 05:49:52;;;;;;;1.37;1.13;;;17.90;98.00;;;;;;5412667;26;21068;-48
2024/04/09 05:52:22;;;;;;;2.23;0.90;;;17.90;97.80;;;;;;5415928;26;20507;-45
2024/04/09 05:54:50;;;;;;;1.43;0.80;;;17.90;97.80;;;;;;5413991;26;20456;-47
2024/04/09 05:57:22;;;;;;;1.90;0.80;;;17.90;97.70;;;;;;5408366;26;21047;-46
2024/04/09 05:59:52;;;;;;;2.97;1.20;;;17.90;97.70;;;;;;5411628;26;20555;-47
2024/04/09 06:02:21;;;;;;;1.47;0.77;;;17.90;98.10;;;;;;5410595;26;20513;-47
2024/04/09 06:04:52;;;;;;;2.07;1.30;;;17.90;97.60;;;;;;5412620;26;20452;-48
2024/04/09 06:07:20;;;;;;;2.30;1.00;;;17.90;97.70;;;;;;5410452;26;20454;-47
2024/04/09 06:09:49;;;;;;;1.40;0.90;;;17.90;97.70;;;;;;5416366;26;20508;-48
2024/04/09 06:12:19;;;;;;;1.87;0.70;;;17.90;97.50;;;;;;5407115;26;20461;-48
2024/04/09 06:14:52;;;;;;;1.73;0.97;;;17.90;97.30;;;;;;5411966;26;20542;-47
2024/04/09 06:17:22;;;;;;;3.10;1.07;;;17.90;97.30;;;;;;5412967;26;20506;-49
2024/04/09 06:19:49;;;;;;;1.57;1.00;;;17.90;97.20;;;;;;5412775;26;20460;-46
2024/04/09 06:22:19;;;;;;;1.73;1.10;;;17.90;97.10;;;;;;5412786;26;20472;-47
2024/04/09 06:24:48;;;;;;;2.20;1.00;;;17.90;96.70;;;;;;5411416;26;21531;-47
2024/04/09 06:27:18;;;;;;;1.53;0.70;;;17.90;96.70;;;;;;5407694;26;20846;-47
2024/04/09 06:29:51;;;;;;;1.57;0.97;;;17.90;96.50;;;;;;5410334;26;20520;-47
2024/04/09 06:32:21;;;;;;;1.33;0.93;;;17.90;96.50;;;;;;5406642;26;20468;-46
2024/04/09 06:34:48;;;;;;;1.57;1.00;;;17.90;96.20;;;;;;5412966;26;20575;-48
2024/04/09 06:37:20;;;;;;;1.83;0.80;;;17.90;96.60;;;;;;5413804;26;20456;-48
2024/04/09 06:39:48;;;;;;;1.40;1.10;;;17.90;96.50;;;;;;5379954;26;20625;-50
2024/04/09 06:42:19;;;;;;;1.57;1.07;;;17.80;96.40;;;;;;5410676;26;20555;-48
2024/04/09 06:44:47;;;;;;;1.90;1.17;;;17.90;97.10;;;;;;5409828;26;20567;-48
2024/04/09 06:47:21;;;;;;;3.20;0.90;;;17.90;96.50;;;;;;5413869;26;21088;-48
2024/04/09 06:49:48;;;;;;;1.43;1.00;;;17.80;96.70;;;;;;5396079;26;20594;-48
2024/04/09 06:52:18;;;;;;;1.90;1.00;;;17.80;96.30;;;;;;5397703;26;20545;-48
2024/04/09 06:54:46;;;;;;;1.70;0.87;;;17.80;96.40;;;;;;5410993;26;20561;-49
2024/04/09 06:57:16;;;;;;;1.40;0.83;;;17.80;96.50;;;;;;5415249;26;20480;-48
2024/04/09 06:59:44;;;;;;;1.57;1.00;;;17.80;96.60;;;;;;5410171;26;20517;-48
2024/04/09 07:02:13;;;;;;;1.30;1.00;;;17.80;96.40;;;;;;5414227;26;20577;-50
2024/04/09 07:04:44;;;;;;;1.63;1.20;;;17.80;96.10;;;;;;5405351;26;20578;-48
2024/04/09 07:07:14;;;;;;;1.97;1.17;;;17.80;96.30;;;;;;5409077;26;20456;-48
2024/04/09 07:09:41;;;;;;;1.33;0.77;;;17.80;96.50;;;;;;5415506;26;21041;-49
2024/04/09 07:12:11;;;;;;;1.40;0.80;;;17.80;96.50;;;;;;5415197;26;20464;-48
2024/04/09 07:14:39;;;;;;;1.33;0.70;;;17.80;96.40;;;;;;5409900;26;21081;-47
2024/04/09 07:17:08;;;;;;;1.93;0.83;;;17.80;96.30;;;;;;5406901;26;20460;-48
2024/04/09 07:19:36;;;;;;;1.30;0.80;;;17.80;96.30;;;;;;5407729;26;20516;-49
2024/04/09 07:22:09;;;;;;;2.20;0.90;;;17.80;96.20;;;;;;5404897;26;20461;-50
2024/04/09 07:24:37;;;;;;;1.30;0.90;;;17.80;95.90;;;;;;5414679;26;21043;-48
2024/04/09 07:27:07;;;;;;;1.53;1.07;;;17.80;96.10;;;;;;5414584;26;20563;-48
2024/04/09 07:29:37;;;;;;;1.03;0.70;;;17.70;95.90;;;;;;5406457;26;20863;-48
2024/04/09 07:32:06;;;;;;;1.97;0.90;;;17.80;95.10;;;;;;5414361;26;20520;-47
2024/04/09 07:34:36;;;;;;;1.50;0.80;;;17.70;95.10;;;;;;5412299;26;20544;-49
2024/04/09 07:37:06;;;;;;;2.33;1.13;;;17.70;95.50;;;;;;5391127;26;20512;-47
2024/04/09 07:39:36;;;;;;;2.43;1.20;;;17.80;95.60;;;;;;5413946;26;20464;-49
2024/04/09 07:42:05;;;;;;;2.90;1.17;;;17.70;95.10;;;;;;5404178;26;20499;-49
2024/04/09 07:44:36;;;;;;;1.50;1.00;;;17.70;95.10;;;;;;5400170;26;20570;-51
2024/04/09 07:47:04;;;;;;;1.30;0.77;;;17.80;95.40;;;;;;5411501;26;20508;-49
2024/04/09 07:49:34;;;;;;;1.37;0.90;;;17.70;95.60;;;;;;5414081;26;20464;-48
2024/04/09 07:52:01;;;;;;;2.57;0.97;;;17.70;95.60;;;;;;5413366;26;20457;-48
2024/04/09 07:54:33;;;;;;;1.83;0.60;;;17.70;95.50;;;;;;5412024;26;21024;-49
2024/04/09 07:57:01;;;;;;;2.27;1.20;;;17.70;95.60;;;;;;5413636;26;20924;-48
2024/04/09 07:59:30;;;;;;;1.50;0.73;;;17.70;95.40;;;;;;5409842;26;20530;-50
2024/04/09 08:01:58;;;;;;;1.33;0.90;;;17.70;95.20;;;;;;5412051;26;20465;-50
2024/04/09 08:04:28;;;;;;;3.10;0.90;;;17.70;95.60;;;;;;5410093;26;20514;-47
2024/04/09 08:06:56;;;;;;;1.87;1.10;;;17.70;95.60;;;;;;5411253;26;20472;-49
2024/04/09 08:09:27;;;;;;;1.90;1.10;;;17.70;95.60;;;;;;5405913;26;21013;-47
2024/04/09 08:11:57;;;;;;;1.63;0.87;;;17.70;95.10;;;;;;5413373;26;20464;-48
2024/04/09 08:14:27;;;;;;;1.53;1.10;;;17.70;95.50;;;;;;5408817;26;20456;-49
2024/04/09 08:16:55;;;;;;;2.37;0.83;;;17.70;95.60;;;;;;5413926;26;20524;-49
2024/04/09 08:19:27;;;;;;;2.70;1.00;;;17.70;95.60;;;;;;5408854;26;20479;-48
2024/04/09 08:21:54;;;;;;;2.17;0.90;;;17.70;95.60;;;;;;5408841;26;20464;-49
2024/04/09 08:24:24;;;;;;;2.80;0.80;;;17.70;95.50;;;;;;5405159;26;20453;-47
2024/04/09 08:26:51;;;;;;;2.50;1.20;;;17.70;95.40;;;;;;5411136;26;20488;-48
2024/04/09 08:29:25;;;;;;;1.30;0.97;;;17.70;95.20;;;;;;5410336;26;21085;-49
2024/04/09 08:31:53;;;;;;;3.03;1.33;;;17.70;95.20;;;;;;5409450;26;20562;-48
2024/04/09 08:34:23;;;;;;;1.73;1.00;;;17.70;95.00;;;;;;5408552;26;20464;-49
2024/04/09 08:36:51;;;;;;;1.90;1.00;;;17.70;95.00;;;;;;5413861;26;20456;-48
2024/04/09 08:39:22;;;;;;;1.33;0.83;;;17.70;95.20;;;;;;5408293;26;20460;-49
2024/04/09 08:41:50;;;;;;;2.93;0.97;;;17.70;95.20;;;;;;5409522;26;20587;-48
2024/04/09 08:44:21;;;;;;;2.03;0.93;;;17.70;95.20;;;;;;5408792;26;21032;-48
2024/04/09 08:46:52;;;;;;;1.53;1.00;;;17.70;95.30;;;;;;5398508;26;20569;-48
2024/04/09 08:49:22;;;;;;;1.80;1.00;;;17.60;95.30;;;;;;5408197;26;20533;-48
2024/04/09 08:51:51;;;;;;;1.30;0.90;;;17.60;95.00;;;;;;5412839;26;20524;-49
2024/04/09 08:54:21;;;;;;;1.77;0.97;;;17.70;95.00;;;;;;5399217;26;20463;-48
2024/04/09 08:56:51;;;;;;;0.90;0.50;;;17.60;95.70;;;;;;5411822;26;21001;-48
2024/04/09 08:59:21;;;;;;;2.20;0.83;;;17.60;95.10;;;;;;5402609;26;20527;-49
2024/04/09 09:01:51;;;;;;;2.77;1.17;;;17.60;95.10;;;;;;5412801;26;20469;-48
2024/04/09 09:04:21;;;;;;;1.33;0.80;;;17.60;95.20;;;;;;5413683;26;20472;-48
2024/04/09 09:06:48;;;;;;;1.47;0.70;;;17.60;95.20;;;;;;5411204;26;20504;-50
2024/04/09 09:09:25;;;;;;;1.50;0.90;;;17.60;95.00;;;;;;5405265;26;20464;-48
2024/04/09 09:12:00;;;;;;;1.60;0.97;;;17.60;95.40;;;;;;5401835;26;20563;-49
2024/04/09 09:14:30;;;;;;;2.17;0.97;;;17.60;95.20;;;;;;5408905;26;20629;-48
2024/04/09 09:17:04;;;;;;;1.80;1.07;;;17.60;95.40;;;;;;5398555;26;20460;-51
2024/04/09 09:19:36;;;;;;;1.83;0.70;;;17.60;95.30;;;;;;5403359;26;20634;-49
2024/04/09 09:22:04;;;;;;;2.60;0.80;;;17.60;94.60;;;;;;5409953;26;20549;-49
2024/04/09 09:24:34;;;;;;;1.50;0.70;;;17.60;94.60;;;;;;5393801;26;20466;-50
2024/04/09 09:27:04;;;;;;;1.53;1.00;;;17.60;95.20;;;;;;5401610;26;20572;-49
2024/04/09 09:29:35;;;;;;;2.37;1.00;;;17.60;94.90;;;;;;5397435;26;20524;-47
2024/04/09 09:32:13;;;;;;;1.40;0.70;;;17.60;94.90;;;;;;5405053;26;20457;-49
2024/04/09 09:34:45;;;;;;;2.23;1.00;;;17.60;94.40;;;;;;5409086;26;20481;-51
2024/04/09 09:37:13;;;;;;;1.67;1.10;;;17.60;94.90;;;;;;5403774;26;20464;-48
2024/04/09 09:39:44;;;;;;;1.20;0.90;;;17.60;93.80;;;;;;5408876;26;20464;-49
2024/04/09 09:42:11;;;;;;;1.73;0.93;;;17.60;94.30;;;;;;5403080;26;20573;-48
2024/04/09 09:44:45;;;;;;;1.63;0.93;;;17.60;93.90;;;;;;5409285;26;20516;-49
2024/04/09 09:47:16;;;;;;;1.00;0.70;;;17.60;94.00;;;;;;5400079;26;20525;-48
2024/04/09 09:49:47;;;;;;;1.30;0.60;;;17.50;93.40;;;;;;5401910;26;20517;-48
2024/04/09 09:52:22;;;;;;;1.33;0.80;;;17.50;93.90;;;;;;5395550;26;20587;-49
2024/04/09 09:54:52;;;;;;;2.40;1.00;;;17.50;93.90;;;;;;5399995;26;20516;-48
2024/04/09 09:57:28;;;;;;;2.10;0.90;;;17.50;94.10;;;;;;5398897;26;20498;-48
2024/04/09 09:59:58;;;;;;;1.77;1.00;;;17.60;93.70;;;;;;5414454;26;20825;-48
2024/04/09 10:02:32;;;;;;;1.67;0.87;;;17.50;93.50;;;;;;5396769;26;20477;-49
2024/04/09 10:05:03;;;;;;;1.10;0.70;;;17.50;94.40;;;;;;5390175;26;20524;-49
2024/04/09 10:07:35;;;;;;;1.80;0.90;;;17.50;93.90;;;;;;5404598;26;20464;-48
2024/04/09 10:10:03;;;;;;;1.93;0.80;;;17.50;93.60;;;;;;5401397;26;20513;-49
2024/04/09 10:12:35;;;;;;;2.10;0.80;;;17.50;93.90;;;;;;5390973;26;20508;-50
2024/04/09 10:15:04;;;;;;;2.17;0.90;;;17.50;94.30;;;;;;5414847;26;20494;-49
2024/04/09 10:17:53;;;;;;;2.07;1.00;;;17.50;94.30;;;;;;5395671;26;20454;-48
2024/04/09 10:20:22;;;;;;;1.90;1.00;;;17.50;94.00;;;;;;5389622;26;21063;-49
2024/04/09 10:22:55;;;;;;;1.30;0.80;;;17.50;93.50;;;;;;5395999;26;20472;-48
2024/04/09 10:25:23;;;;;;;1.67;0.93;;;17.50;93.50;;;;;;5388244;26;20841;-47
2024/04/09 10:28:02;;;;;;;2.07;1.10;;;17.50;93.50;;;;;;5401293;26;20473;-49
2024/04/09 10:30:32;;;;;;;1.47;0.70;;;17.50;93.10;;;;;;5397633;26;20484;-48
2024/04/09 10:33:06;;;;;;;2.60;2.00;;;17.50;93.60;;;;;;5391298;26;20461;-48
2024/04/09 10:35:34;;;;;;;1.67;0.90;;;17.50;93.60;;;;;;5392907;26;21026;-47
2024/04/09 10:38:07;;;;;;;2.80;1.27;;;17.50;94.00;;;;;;5412493;26;20468;-49
2024/04/09 10:40:37;;;;;;;2.43;1.00;;;17.50;94.40;;;;;;5412757;26;20471;-47
2024/04/09 10:43:10;;;;;;;1.70;1.10;;;17.50;94.90;;;;;;5396816;26;20532;-47
2024/04/09 10:45:38;;;;;;;1.97;1.03;;;17.50;94.20;;;;;;5410334;26;20510;-49
2024/04/09 10:48:27;;;;;;;1.63;0.83;;;17.50;93.70;;;;;;5404589;26;20516;-45
2024/04/09 10:50:55;;;;;;;1.93;0.70;;;17.50;93.70;;;;;;5413173;26;20926;-46
2024/04/09 10:53:25;;;;;;;1.50;0.60;;;17.50;93.90;;;;;;5398845;26;20551;-46
2024/04/09 10:56:00;;;;;;;1.93;0.90;;;17.50;92.80;;;;;;5408198;26;20904;-46
2024/04/09 10:58:30;;;;;;;2.13;0.90;;;17.50;92.30;;;;;;5401513;26;20463;-47
2024/04/09 11:00:58;;;;;;;1.10;0.90;;;17.50;92.00;;;;;;5405548;26;20542;-46
2024/04/09 11:03:32;;;;;;;1.27;0.83;;;17.50;92.70;;;;;;5404192;26;20472;-47
2024/04/09 11:05:59;;;;;;;2.10;0.80;;;17.50;92.70;;;;;;5395630;26;20524;-47
2024/04/09 11:08:31;;;;;;;3.27;0.90;;;17.50;92.70;;;;;;5404357;26;20715;-50
2024/04/09 11:11:00;;;;;;;1.87;0.90;;;17.50;92.90;;;;;;5404153;26;20466;-49
2024/04/09 11:13:32;;;;;;;3.83;0.93;;;17.50;92.80;;;;;;5397068;26;21128;-49
2024/04/09 11:16:01;;;;;;;1.20;0.60;;;17.50;92.70;;;;;;5399145;26;20566;-49
2024/04/09 11:18:34;;;;;;;2.43;0.80;;;17.50;93.10;;;;;;5409093;26;20566;-49
2024/04/09 11:21:03;;;;;;;1.40;0.63;;;17.50;93.00;;;;;;5387018;26;20765;-49
2024/04/09 11:23:33;;;;;;;3.30;1.00;;;17.50;92.80;;;;;;5405713;26;20457;-49
2024/04/09 11:26:01;;;;;;;1.90;0.80;;;17.50;92.80;;;;;;5412672;26;20540;-49
2024/04/09 11:28:33;;;;;;;2.20;1.10;;;17.50;92.60;;;;;;5398909;26;20465;-47
2024/04/09 11:31:03;;;;;;;1.70;0.77;;;17.50;93.00;;;;;;5408608;26;20523;-49
2024/04/09 11:33:36;;;;;;;3.37;1.17;;;17.50;92.70;;;;;;5398305;26;20929;-50
2024/04/09 11:36:04;;;;;;;2.20;1.03;;;17.50;92.30;;;;;;5402814;26;20570;-51
2024/04/09 11:38:45;;;;;;;1.77;0.90;;;17.50;92.20;;;;;;5393719;26;20467;-47
2024/04/09 11:41:13;;;;;;;3.63;1.53;;;17.50;91.50;;;;;;5397535;26;20466;-47
2024/04/09 11:43:44;;;;;;;2.07;0.70;;;17.50;91.40;;;;;;5399491;26;20578;-50
2024/04/09 11:46:12;;;;;;;2.27;0.73;;;17.50;92.30;;;;;;5406879;26;20469;-48
2024/04/09 11:48:44;;;;;;;3.80;1.07;;;17.50;92.00;;;;;;5407523;26;20535;-49
2024/04/09 11:51:12;;;;;;;1.73;1.33;;;17.50;91.80;;;;;;5398840;26;20861;-48
2024/04/09 11:53:46;;;;;;;2.10;1.00;;;17.50;92.20;;;;;;5397012;26;20450;-48
2024/04/09 11:56:13;;;;;;;2.10;0.77;;;17.50;91.70;;;;;;5399983;26;20500;-48
2024/04/09 11:58:47;;;;;;;1.70;0.80;;;17.50;92.50;;;;;;5390906;26;20473;-46
2024/04/09 12:01:15;;;;;;;1.90;1.00;;;17.50;92.30;;;;;;5405601;26;20512;-46
2024/04/09 12:03:50;;;;;;;1.77;1.07;;;17.50;92.60;;;;;;5395839;26;20464;-50
2024/04/09 12:06:18;;;;;;;2.17;0.80;;;17.50;92.10;;;;;;5404654;26;20529;-49
2024/04/09 12:08:48;;;;;;;1.40;0.60;;;17.50;92.20;;;;;;5398193;26;20540;-47
2024/04/09 12:11:15;;;;;;;2.60;1.10;;;17.50;94.10;;;;;;5407302;26;20470;-47
2024/04/09 12:13:49;;;;;;;2.20;0.70;;;17.40;86.60;;;;;;5410181;26;20316;-46
2024/04/09 12:16:17;;;;;;;2.40;0.80;;;17.40;90.40;;;;;;5404592;26;20497;-48
2024/04/09 12:18:49;;;;;;;1.27;0.87;;;17.40;91.20;;;;;;5394596;26;20520;-46
2024/04/09 12:21:17;;;;;;;2.63;1.10;;;17.40;90.60;;;;;;5409608;26;20475;-47
2024/04/09 12:23:49;;;;;;;1.43;1.00;;;17.40;90.70;;;;;;5397600;26;20519;-46
2024/04/09 12:26:17;;;;;;;1.97;1.00;;;17.50;90.70;;;;;;5413850;26;20453;-46
2024/04/09 12:28:49;;;;;;;2.10;1.13;;;17.50;90.30;;;;;;5402962;26;20520;-46
2024/04/09 12:31:18;;;;;;;1.40;0.70;;;17.50;90.40;;;;;;5409597;26;20614;-48
2024/04/09 12:33:51;;;;;;;1.83;0.80;;;17.50;90.40;;;;;;5411431;26;20459;-47
2024/04/09 12:36:18;;;;;;;3.47;1.00;;;17.50;90.30;;;;;;5412256;26;20547;-48
2024/04/09 12:38:48;;;;;;;1.53;0.83;;;17.50;90.30;;;;;;5394873;26;20476;-47
2024/04/09 12:41:17;;;;;;;2.20;0.80;;;17.50;91.10;;;;;;5399237;26;21129;-48
2024/04/09 12:43:51;;;;;;;1.70;1.20;;;17.50;90.90;;;;;;5406366;26;20457;-47
2024/04/09 12:46:19;;;;;;;1.87;0.83;;;17.50;90.90;;;;;;5404674;26;20816;-49
2024/04/09 12:48:52;;;;;;;1.43;0.97;;;17.50;91.30;;;;;;5393799;26;20578;-50
2024/04/09 12:51:39;;;;;;;1.53;1.07;;;17.50;90.70;;;;;;5401710;26;23057;-47
2024/04/09 12:54:09;;;;;;;3.67;0.90;;;17.50;90.60;;;;;;5410298;26;20445;-47
2024/04/09 12:56:37;;;;;;;2.33;1.03;;;17.50;90.80;;;;;;5411934;26;20456;-47
2024/04/09 12:59:07;;;;;;;2.13;0.77;;;17.50;91.00;;;;;;5394664;26;20582;-47
2024/04/09 13:01:38;;;;;;;2.30;1.10;;;17.50;90.90;;;;;;5408560;26;20517;-45